Time;durP1;ratioP1;P1;durP2;ratioP2;P2;SDS_P1;SDS_P2;PMS_P1;PMS_P2;Temp;Humidity;BMP_temperature;BMP_pressure;BME280_temperature;BME280_humidity;BME280_pressure;Samples;Min_cycle;Max_cycle;Signal;HPM_P1;HPM_P2
2021/09/28 00:00:16;;;;;;;;;;;;;;;22.92;53.88;96154.03;1050681;28;1201;-54
2021/09/28 00:00:46;;;;;;;;;;;;;;;22.93;53.85;96155.63;1050242;28;2225;-56
2021/09/28 00:01:17;;;;;;;;;;;;;;;22.92;53.76;96160.13;1052627;28;1287;-56
2021/09/28 00:01:47;;;;;;;;;;;;;;;22.93;53.77;96155.63;1052089;28;1142;-57
2021/09/28 00:02:17;;;;;;;;;;;;;;;22.92;53.91;96152.19;1050389;28;1389;-55
2021/09/28 00:02:48;;;;;;;;;;;;;;;22.93;53.62;96158.28;1047848;28;1017;-56
2021/09/28 00:03:18;;;;;;;;;;;;;;;22.91;53.93;96158.56;1052104;28;1110;-55
2021/09/28 00:03:48;;;;;;;;;;;;;;;22.92;53.96;96156.69;1048802;28;1327;-53
2021/09/28 00:04:19;;;;;;;;;;;;;;;22.93;53.88;96155.63;1049129;28;2073;-55
2021/09/28 00:04:49;;;;;;;;;;;;;;;22.93;53.84;96160.91;1051905;28;1123;-56
2021/09/28 00:05:21;;;;;;;;;;;;;;;22.92;54.04;96162.75;1051471;28;1237;-54
2021/09/28 00:05:51;;;;;;;;;;;;;;;22.91;53.97;96160.41;1050224;28;1388;-58
2021/09/28 00:06:22;;;;;;;;;;;;;;;22.91;53.82;96158.56;1051457;28;1174;-55
2021/09/28 00:06:52;;;;;;;;;;;;;;;22.91;54.22;96163.06;1051250;28;1370;-53
2021/09/28 00:07:22;;;;;;;;;;;;;;;22.92;53.91;96164.63;1052733;28;1193;-54
2021/09/28 00:07:53;;;;;;;;;;;;;;;22.91;53.78;96160.41;1050428;28;1241;-56
2021/09/28 00:08:23;;;;;;;;;;;;;;;22.92;53.90;96159.31;1051598;28;1198;-56
2021/09/28 00:08:53;;;;;;;;;;;;;;;22.92;53.58;96160.13;1050609;28;1079;-57
2021/09/28 00:09:24;;;;;;;;;;;;;;;22.92;53.74;96157.47;1051252;28;1948;-54
2021/09/28 00:09:54;;;;;;;;;;;;;;;22.93;53.80;96167.00;1044930;28;1572;-58
2021/09/28 00:10:24;;;;;;;;;;;;;;;22.94;53.67;96162.47;1052199;28;970;-57
2021/09/28 00:10:55;;;;;;;;;;;;;;;22.93;53.48;96159.06;1052782;28;1055;-54
2021/09/28 00:11:25;;;;;;;;;;;;;;;22.94;53.79;96154.56;1052362;28;1150;-58
2021/09/28 00:11:55;;;;;;;;;;;;;;;22.94;53.55;96157.19;1051855;28;1414;-58
2021/09/28 00:12:26;;;;;;;;;;;;;;;22.94;53.58;96157.19;1052863;28;1173;-54
2021/09/28 00:12:56;;;;;;;;;;;;;;;22.93;53.66;96161.72;1051095;28;1220;-54
2021/09/28 00:13:26;;;;;;;;;;;;;;;22.94;53.84;96162.47;1050583;28;1189;-57
2021/09/28 00:13:58;;;;;;;;;;;;;;;22.93;53.63;96160.91;1051298;28;1049;-53
2021/09/28 00:14:28;;;;;;;;;;;;;;;22.93;53.95;96158.28;1049211;28;2007;-58
2021/09/28 00:14:59;;;;;;;;;;;;;;;22.93;53.69;96164.34;1051998;28;1467;-54
2021/09/28 00:15:29;;;;;;;;;;;;;;;22.93;53.85;96163.56;1053534;28;1158;-57
2021/09/28 00:15:59;;;;;;;;;;;;;;;22.93;53.84;96164.34;1053216;28;1366;-57
2021/09/28 00:16:30;;;;;;;;;;;;;;;22.93;53.55;96160.91;1051354;28;1910;-57
2021/09/28 00:17:00;;;;;;;;;;;;;;;22.93;53.89;96160.91;1049349;28;2233;-55
2021/09/28 00:17:31;;;;;;;;;;;;;;;22.93;53.54;96163.56;1052426;28;2272;-56
2021/09/28 00:18:01;;;;;;;;;;;;;;;22.93;53.83;96166.22;1050948;28;1060;-57
2021/09/28 00:18:31;;;;;;;;;;;;;;;22.93;53.49;96163.56;1053489;28;815;-56
2021/09/28 00:19:02;;;;;;;;;;;;;;;22.93;53.63;96160.91;1052290;28;1549;-58
2021/09/28 00:19:32;;;;;;;;;;;;;;;22.93;53.79;96160.91;1046204;28;1486;-57
2021/09/28 00:20:03;;;;;;;;;;;;;;;22.92;53.83;96160.13;1046983;28;1948;-55
2021/09/28 00:20:38;;;;;;;;;;;;;;;22.92;53.92;96160.13;1048919;28;823;-57
2021/09/28 00:21:08;;;;;;;;;;;;;;;22.92;53.63;96159.31;1053174;28;1039;-55
2021/09/28 00:21:38;;;;;;;;;;;;;;;22.92;53.77;96160.13;1050205;28;1145;-57
2021/09/28 00:22:09;;;;;;;;;;;;;;;22.93;53.68;96158.28;1052788;28;1131;-55
2021/09/28 00:22:39;;;;;;;;;;;;;;;22.91;53.86;96158.56;1049068;28;1473;-58
2021/09/28 00:23:13;;;;;;;;;;;;;;;22.92;53.55;96165.41;1052391;28;1194;-58
2021/09/28 00:23:43;;;;;;;;;;;;;;;22.91;53.79;96163.06;1050206;28;2282;-57
2021/09/28 00:24:15;;;;;;;;;;;;;;;22.93;53.75;96160.91;1052079;28;1165;-58
2021/09/28 00:24:45;;;;;;;;;;;;;;;22.93;53.51;96161.72;1049528;28;1138;-56
2021/09/28 00:25:15;;;;;;;;;;;;;;;22.92;53.87;96162.75;1051384;28;2363;-58
2021/09/28 00:25:51;;;;;;;;;;;;;;;22.93;53.58;96160.91;1051038;28;1084;-58
2021/09/28 00:26:22;;;;;;;;;;;;;;;22.93;53.69;96161.72;1051278;28;1130;-56
2021/09/28 00:26:52;;;;;;;;;;;;;;;22.92;53.58;96164.63;1050296;28;1709;-58
2021/09/28 00:27:23;;;;;;;;;;;;;;;22.93;53.44;96161.72;1049072;28;1591;-55
2021/09/28 00:27:54;;;;;;;;;;;;;;;22.92;53.78;96167.25;1048041;28;1618;-58
2021/09/28 00:28:28;;;;;;;;;;;;;;;22.93;53.83;96163.56;1044118;28;1509;-58
2021/09/28 00:28:58;;;;;;;;;;;;;;;22.92;53.59;96165.41;1048012;28;1115;-55
2021/09/28 00:29:28;;;;;;;;;;;;;;;22.92;53.46;96161.97;1048855;28;1141;-58
2021/09/28 00:29:59;;;;;;;;;;;;;;;22.92;53.69;96164.63;1048245;28;2087;-56
2021/09/28 00:30:29;;;;;;;;;;;;;;;22.92;53.67;96165.41;1053234;28;1126;-58
2021/09/28 00:30:59;;;;;;;;;;;;;;;22.92;53.74;96160.13;1052997;28;1016;-58
2021/09/28 00:31:30;;;;;;;;;;;;;;;22.94;53.46;96167.78;1049070;28;1133;-58
2021/09/28 00:32:00;;;;;;;;;;;;;;;22.92;53.34;96164.63;1051615;28;1219;-57
2021/09/28 00:32:31;;;;;;;;;;;;;;;22.93;53.58;96163.56;1052959;28;832;-57
2021/09/28 00:33:01;;;;;;;;;;;;;;;22.92;53.78;96164.63;1050693;28;1506;-57
2021/09/28 00:33:31;;;;;;;;;;;;;;;22.92;53.63;96164.63;1050125;28;1237;-58
2021/09/28 00:34:02;;;;;;;;;;;;;;;22.92;53.73;96164.63;1052342;28;1087;-58
2021/09/28 00:34:33;;;;;;;;;;;;;;;22.91;53.49;96163.84;1050911;28;1075;-58
2021/09/28 00:35:04;;;;;;;;;;;;;;;22.92;53.77;96167.25;1049735;28;2042;-58
2021/09/28 00:35:34;;;;;;;;;;;;;;;22.92;53.82;96164.63;1052662;28;1619;-56
2021/09/28 00:36:05;;;;;;;;;;;;;;;22.92;53.64;96167.25;1052352;28;1111;-57
2021/09/28 00:36:35;;;;;;;;;;;;;;;22.91;53.72;96168.34;1052595;28;1969;-58
2021/09/28 00:37:06;;;;;;;;;;;;;;;22.91;53.74;96170.97;1052412;28;1112;-57
2021/09/28 00:37:36;;;;;;;;;;;;;;;22.91;53.98;96170.97;1051664;28;1668;-57
2021/09/28 00:38:07;;;;;;;;;;;;;;;22.91;53.81;96171.78;1052526;28;1280;-58
2021/09/28 00:38:37;;;;;;;;;;;;;;;22.90;53.61;96164.09;1049150;28;1478;-55
2021/09/28 00:39:07;;;;;;;;;;;;;;;22.90;53.82;96164.09;1052600;28;1147;-58
2021/09/28 00:39:38;;;;;;;;;;;;;;;22.92;53.49;96169.91;1050086;28;1165;-56
2021/09/28 00:40:08;;;;;;;;;;;;;;;22.90;53.88;96167.53;1049709;28;1954;-58
2021/09/28 00:40:39;;;;;;;;;;;;;;;22.90;53.68;96172.84;1050808;28;1420;-57
2021/09/28 00:41:09;;;;;;;;;;;;;;;22.91;53.53;96168.34;1051674;28;1088;-57
2021/09/28 00:41:39;;;;;;;;;;;;;;;22.90;53.69;96166.75;1052682;28;1026;-57
2021/09/28 00:42:10;;;;;;;;;;;;;;;22.92;53.82;96169.91;1050457;28;1341;-55
2021/09/28 00:42:40;;;;;;;;;;;;;;;22.92;53.69;96169.91;1050968;28;1086;-57
2021/09/28 00:43:11;;;;;;;;;;;;;;;22.91;53.82;96170.97;1051522;28;1517;-58
2021/09/28 00:43:51;;;;;;;;;;;;;;;22.91;53.82;96169.13;1048885;28;1196;-58
2021/09/28 00:44:40;;;;;;;;;;;;;;;22.91;53.65;96170.97;1050864;28;1110;-55
2021/09/28 00:45:11;;;;;;;;;;;;;;;22.91;53.90;96165.69;1050090;28;2025;-58
2021/09/28 00:45:41;;;;;;;;;;;;;;;22.91;53.84;96168.34;1047910;28;1998;-58
2021/09/28 00:46:12;;;;;;;;;;;;;;;22.91;53.54;96171.78;1046382;28;2054;-57
2021/09/28 00:46:42;;;;;;;;;;;;;;;22.91;53.78;96171.78;1047877;28;1986;-58
2021/09/28 00:47:13;;;;;;;;;;;;;;;22.92;53.82;96164.63;1047939;28;2073;-56
2021/09/28 00:47:43;;;;;;;;;;;;;;;22.91;53.88;96173.63;1044634;28;2305;-54
2021/09/28 00:48:14;;;;;;;;;;;;;;;22.91;53.74;96168.34;1048286;28;2070;-58
2021/09/28 00:48:44;;;;;;;;;;;;;;;22.91;53.49;96170.97;1048245;28;2042;-58
2021/09/28 00:49:14;;;;;;;;;;;;;;;22.91;53.49;96174.44;1049992;28;2271;-56
2021/09/28 00:49:45;;;;;;;;;;;;;;;22.90;53.61;96170.19;1047606;28;2077;-55
2021/09/28 00:50:15;;;;;;;;;;;;;;;22.91;53.36;96173.63;1048071;28;2031;-58
2021/09/28 00:50:46;;;;;;;;;;;;;;;22.90;53.64;96175.47;1048007;28;2053;-58
2021/09/28 00:51:17;;;;;;;;;;;;;;;22.91;53.61;96170.97;1048150;28;2173;-58
2021/09/28 00:51:47;;;;;;;;;;;;;;;22.91;53.64;96170.97;1051036;28;2243;-57
2021/09/28 00:52:18;;;;;;;;;;;;;;;22.91;53.86;96170.97;1052593;28;2065;-56
2021/09/28 00:52:49;;;;;;;;;;;;;;;22.91;53.94;96176.28;1049844;28;2226;-54
2021/09/28 00:53:19;;;;;;;;;;;;;;;22.91;53.62;96173.63;1051604;28;2073;-54
2021/09/28 00:53:50;;;;;;;;;;;;;;;22.91;53.74;96170.97;1051201;28;2399;-52
2021/09/28 00:54:20;;;;;;;;;;;;;;;22.90;53.83;96175.47;1050452;28;2121;-58
2021/09/28 00:54:51;;;;;;;;;;;;;;;22.90;53.88;96161.47;1051418;28;2101;-56
2021/09/28 00:55:27;;;;;;;;;;;;;;;22.91;53.82;96165.69;1047334;28;2095;-58
2021/09/28 00:55:57;;;;;;;;;;;;;;;22.90;53.36;96170.19;1048525;28;2363;-56
2021/09/28 00:56:28;;;;;;;;;;;;;;;22.91;53.62;96166.50;1053050;28;1977;-57
2021/09/28 00:56:58;;;;;;;;;;;;;;;22.91;53.79;96169.13;1051586;28;1335;-58
2021/09/28 00:57:28;;;;;;;;;;;;;;;22.92;53.69;96169.91;1051856;28;1157;-57
2021/09/28 00:58:02;;;;;;;;;;;;;;;22.92;53.85;96175.19;1050823;28;1310;-54
2021/09/28 00:58:33;;;;;;;;;;;;;;;22.91;53.77;96173.63;1051505;28;1185;-56
2021/09/28 00:59:03;;;;;;;;;;;;;;;22.91;53.53;96168.34;1051194;28;1233;-57
2021/09/28 00:59:34;;;;;;;;;;;;;;;22.91;53.84;96163.06;1053244;28;761;-55
2021/09/28 01:00:07;;;;;;;;;;;;;;;22.90;53.69;96172.03;1049838;28;2098;-55
2021/09/28 01:00:37;;;;;;;;;;;;;;;22.90;53.53;96177.31;1045155;28;1390;-55
2021/09/28 01:01:08;;;;;;;;;;;;;;;22.90;53.79;96174.69;1048415;28;1077;-56
2021/09/28 01:01:38;;;;;;;;;;;;;;;22.90;53.76;96169.38;1044846;28;1146;-58
2021/09/28 01:02:09;;;;;;;;;;;;;;;22.90;53.82;96179.97;1045744;28;1032;-57
2021/09/28 01:02:40;;;;;;;;;;;;;;;22.90;53.72;96170.19;1051100;28;1743;-53
2021/09/28 01:03:10;;;;;;;;;;;;;;;22.90;53.63;96167.53;1045466;28;2181;-57
2021/09/28 01:03:41;;;;;;;;;;;;;;;22.90;53.85;96166.75;1052624;28;1491;-56
2021/09/28 01:04:16;;;;;;;;;;;;;;;22.90;53.72;96175.47;1048375;28;1177;-58
2021/09/28 01:04:46;;;;;;;;;;;;;;;22.89;53.44;96173.91;1048232;28;1422;-57
2021/09/28 01:05:16;;;;;;;;;;;;;;;22.90;53.79;96169.38;1050363;28;2103;-58
2021/09/28 01:05:47;;;;;;;;;;;;;;;22.90;53.40;96172.03;1053004;28;1199;-58
2021/09/28 01:06:17;;;;;;;;;;;;;;;22.89;53.83;96171.28;1053256;28;1169;-57
2021/09/28 01:06:47;;;;;;;;;;;;;;;22.90;53.41;96172.84;1050762;28;1308;-55
2021/09/28 01:07:18;;;;;;;;;;;;;;;22.91;53.69;96173.63;1051711;28;1225;-58
2021/09/28 01:07:49;;;;;;;;;;;;;;;22.90;53.57;96170.19;1052690;28;1369;-56
2021/09/28 01:08:23;;;;;;;;;;;;;;;22.89;53.83;96176.56;1046220;28;1248;-58
2021/09/28 01:08:54;;;;;;;;;;;;;;;22.90;53.50;96177.31;1046619;28;1045;-54
2021/09/28 01:09:32;;;;;;;;;;;;;;;22.90;53.72;96175.47;1044716;28;1460;-53
2021/09/28 01:10:22;;;;;;;;;;;;;;;22.91;53.74;96171.78;1049100;28;2174;-56
2021/09/28 01:11:08;;;;;;;;;;;;;;;22.90;53.77;96177.31;1048491;28;1264;-58
2021/09/28 01:11:38;;;;;;;;;;;;;;;22.90;53.65;96172.03;1044571;28;1154;-56
2021/09/28 01:12:09;;;;;;;;;;;;;;;22.90;53.55;96177.31;1044343;28;1152;-57
2021/09/28 01:12:40;;;;;;;;;;;;;;;22.90;53.82;96177.31;1045005;28;2520;-58
2021/09/28 01:13:12;;;;;;;;;;;;;;;22.89;53.40;96173.91;1051785;28;2066;-57
2021/09/28 01:13:43;;;;;;;;;;;;;;;22.89;53.80;96171.28;1048822;28;2089;-58
2021/09/28 01:14:35;;;;;;;;;;;;;;;22.89;53.69;96175.75;1045486;28;2279;-57
2021/09/28 01:15:26;;;;;;;;;;;;;;;22.88;53.86;96171.53;1048906;28;2095;-58
2021/09/28 01:16:14;;;;;;;;;;;;;;;22.89;53.88;96173.13;1049675;28;1414;-55
2021/09/28 01:16:45;;;;;;;;;;;;;;;22.89;53.59;96175.75;1048896;28;1906;-57
2021/09/28 01:17:16;;;;;;;;;;;;;;;22.90;53.53;96172.03;1050828;28;1279;-58
2021/09/28 01:18:06;;;;;;;;;;;;;;;22.89;53.76;96167.81;1050734;28;1077;-58
2021/09/28 01:18:56;;;;;;;;;;;;;;;22.90;53.42;96169.38;1048447;28;1321;-58
2021/09/28 01:19:27;;;;;;;;;;;;;;;22.91;53.43;96178.91;1050086;28;1159;-58
2021/09/28 01:19:57;;;;;;;;;;;;;;;22.90;53.49;96169.38;1052480;28;1130;-58
2021/09/28 01:20:28;;;;;;;;;;;;;;;22.90;53.78;96174.69;1050707;28;2157;-58
2021/09/28 01:20:58;;;;;;;;;;;;;;;22.89;53.42;96170.47;1052377;28;1111;-57
2021/09/28 01:21:30;;;;;;;;;;;;;;;22.89;53.77;96175.75;1051208;28;1200;-57
2021/09/28 01:22:20;;;;;;;;;;;;;;;22.89;53.54;96168.63;1051294;28;1254;-56
2021/09/28 01:23:11;;;;;;;;;;;;;;;22.90;53.48;96177.31;1050456;28;1016;-58
2021/09/28 01:24:01;;;;;;;;;;;;;;;22.90;53.67;96174.69;1052275;28;1527;-57
2021/09/28 01:24:51;;;;;;;;;;;;;;;22.89;53.37;96170.47;1049812;28;2320;-57
2021/09/28 01:25:22;;;;;;;;;;;;;;;22.88;53.72;96174.97;1051391;28;1215;-58
2021/09/28 01:25:52;;;;;;;;;;;;;;;22.88;53.50;96168.88;1050947;28;1040;-58
2021/09/28 01:26:26;;;;;;;;;;;;;;;22.89;53.61;96170.47;1048941;28;1941;-57
2021/09/28 01:26:56;;;;;;;;;;;;;;;22.89;53.57;96173.13;1050678;28;1352;-58
2021/09/28 01:27:26;;;;;;;;;;;;;;;22.89;53.57;96176.56;1048691;28;1284;-56
2021/09/28 01:27:58;;;;;;;;;;;;;;;22.87;53.87;96170.75;1048010;28;1397;-57
2021/09/28 01:28:48;;;;;;;;;;;;;;;22.88;53.42;96182.09;1049069;28;2317;-57
2021/09/28 01:29:39;;;;;;;;;;;;;;;22.87;53.74;96172.59;1048782;28;1167;-57
2021/09/28 01:30:14;;;;;;;;;;;;;;;22.87;53.77;96175.25;1048425;28;1208;-54
2021/09/28 01:30:44;;;;;;;;;;;;;;;22.88;53.58;96177.59;1049375;28;1163;-58
2021/09/28 01:31:15;;;;;;;;;;;;;;;22.88;53.80;96176.81;1052351;28;1193;-55
2021/09/28 01:31:45;;;;;;;;;;;;;;;22.88;53.52;96179.47;1052880;28;1099;-57
2021/09/28 01:32:16;;;;;;;;;;;;;;;22.89;53.71;96175.75;1051490;28;1273;-57
2021/09/28 01:32:46;;;;;;;;;;;;;;;22.87;53.52;96173.41;1050724;28;1274;-57
2021/09/28 01:33:16;;;;;;;;;;;;;;;22.89;53.73;96170.47;1048528;28;1146;-56
2021/09/28 01:33:47;;;;;;;;;;;;;;;22.88;53.59;96174.16;1045058;28;2237;-55
2021/09/28 01:34:19;;;;;;;;;;;;;;;22.88;53.64;96177.59;1043136;28;2257;-56
2021/09/28 01:34:49;;;;;;;;;;;;;;;22.87;53.69;96168.13;1045693;28;2077;-58
2021/09/28 01:35:20;;;;;;;;;;;;;;;22.88;53.61;96180.25;1047581;28;2332;-55
2021/09/28 01:35:50;;;;;;;;;;;;;;;22.88;53.86;96174.16;1047726;28;2221;-58
2021/09/28 01:36:20;;;;;;;;;;;;;;;22.87;53.94;96173.41;1049869;28;1972;-58
2021/09/28 01:36:51;;;;;;;;;;;;;;;22.88;53.70;96168.88;1046985;28;2257;-57
2021/09/28 01:37:21;;;;;;;;;;;;;;;22.87;53.71;96172.59;1048175;28;2082;-56
2021/09/28 01:37:51;;;;;;;;;;;;;;;22.87;53.70;96177.88;1047281;28;2145;-56
2021/09/28 01:38:22;;;;;;;;;;;;;;;22.86;53.80;96163.88;1047167;28;2062;-59
2021/09/28 01:38:52;;;;;;;;;;;;;;;22.86;53.63;96169.16;1049280;28;2197;-58
2021/09/28 01:39:22;;;;;;;;;;;;;;;22.89;53.54;96170.47;1047713;28;2414;-56
2021/09/28 01:39:53;;;;;;;;;;;;;;;22.89;53.71;96167.81;1047564;28;2051;-55
2021/09/28 01:40:23;;;;;;;;;;;;;;;22.87;53.77;96169.97;1050743;28;2031;-58
2021/09/28 01:40:53;;;;;;;;;;;;;;;22.88;53.35;96169.69;1047589;28;2026;-57
2021/09/28 01:41:24;;;;;;;;;;;;;;;22.87;53.72;96173.41;1046452;28;2196;-58
2021/09/28 01:41:54;;;;;;;;;;;;;;;22.87;53.64;96165.47;1047478;28;2067;-57
2021/09/28 01:42:24;;;;;;;;;;;;;;;22.87;53.54;96167.31;1048316;28;2018;-54
2021/09/28 01:42:55;;;;;;;;;;;;;;;22.88;53.71;96171.53;1046805;28;1979;-59
2021/09/28 01:43:25;;;;;;;;;;;;;;;22.89;53.36;96175.75;1049160;28;1967;-56
2021/09/28 01:44:08;;;;;;;;;;;;;;;22.89;53.68;96171.28;1047881;28;2340;-59
2021/09/28 01:44:39;;;;;;;;;;;;;;;22.88;53.66;96169.69;1047370;28;2066;-56
2021/09/28 01:45:09;;;;;;;;;;;;;;;22.88;53.67;96167.03;1049596;28;1975;-54
2021/09/28 01:45:39;;;;;;;;;;;;;;;22.88;53.75;96172.31;1048690;28;1584;-61
2021/09/28 01:46:10;;;;;;;;;;;;;;;22.89;53.43;96175.75;1049782;28;1436;-56
2021/09/28 01:46:41;;;;;;;;;;;;;;;22.89;53.47;96179.19;1051383;28;1308;-55
2021/09/28 01:47:12;;;;;;;;;;;;;;;22.88;53.65;96176.81;1050153;28;1474;-56
2021/09/28 01:47:42;;;;;;;;;;;;;;;22.88;53.44;96172.31;1051145;28;1660;-56
2021/09/28 01:48:12;;;;;;;;;;;;;;;22.88;53.51;96174.16;1046158;28;1189;-55
2021/09/28 01:48:45;;;;;;;;;;;;;;;22.88;53.42;96176.81;1051940;28;1971;-58
2021/09/28 01:49:16;;;;;;;;;;;;;;;22.87;53.69;96173.41;1046254;28;1492;-57
2021/09/28 01:49:47;;;;;;;;;;;;;;;22.87;53.49;96175.25;1048680;28;890;-57
2021/09/28 01:50:17;;;;;;;;;;;;;;;22.88;53.75;96169.69;1051605;28;1051;-58
2021/09/28 01:50:47;;;;;;;;;;;;;;;22.89;53.38;96173.13;1049723;28;1095;-58
2021/09/28 01:51:17;;;;;;;;;;;;;;;22.89;53.57;96175.75;1053165;28;1161;-58
2021/09/28 01:51:48;;;;;;;;;;;;;;;22.88;53.71;96172.31;1052852;28;1048;-56
2021/09/28 01:52:18;;;;;;;;;;;;;;;22.88;53.64;96174.16;1051075;28;1146;-58
2021/09/28 01:52:48;;;;;;;;;;;;;;;22.88;53.63;96172.31;1051909;28;1374;-57
2021/09/28 01:53:19;;;;;;;;;;;;;;;22.87;53.73;96175.25;1053084;28;1220;-56
2021/09/28 01:53:49;;;;;;;;;;;;;;;22.87;53.63;96175.25;1049566;28;2034;-54
2021/09/28 01:54:19;;;;;;;;;;;;;;;22.87;53.64;96178.69;1052581;28;1113;-58
2021/09/28 01:54:50;;;;;;;;;;;;;;;22.88;53.52;96176.81;1048515;28;1161;-58
2021/09/28 01:55:20;;;;;;;;;;;;;;;22.87;53.45;96173.41;1048358;28;1551;-59
2021/09/28 01:55:50;;;;;;;;;;;;;;;22.88;53.25;96179.47;1046007;28;1185;-56
2021/09/28 01:56:22;;;;;;;;;;;;;;;22.88;53.42;96176.81;1048446;28;1131;-56
2021/09/28 01:56:52;;;;;;;;;;;;;;;22.88;53.64;96182.09;1052474;28;1941;-56
2021/09/28 01:57:23;;;;;;;;;;;;;;;22.88;53.63;96182.09;1050033;28;1106;-58
2021/09/28 01:57:56;;;;;;;;;;;;;;;22.88;53.35;96176.81;1050659;28;2012;-57
2021/09/28 01:58:26;;;;;;;;;;;;;;;22.87;53.42;96178.69;1051260;28;1170;-57
2021/09/28 01:58:57;;;;;;;;;;;;;;;22.87;53.64;96177.88;1049649;28;1939;-56
2021/09/28 01:59:27;;;;;;;;;;;;;;;22.87;53.67;96178.69;1052719;28;1106;-56
2021/09/28 01:59:57;;;;;;;;;;;;;;;22.87;53.38;96183.97;1052154;28;1051;-55
2021/09/28 02:00:28;;;;;;;;;;;;;;;22.86;53.65;96177.09;1049639;28;1166;-57
2021/09/28 02:00:58;;;;;;;;;;;;;;;22.87;53.49;96181.34;1051561;28;1107;-58
2021/09/28 02:01:29;;;;;;;;;;;;;;;22.88;53.67;96182.09;1049288;28;1138;-58
2021/09/28 02:01:59;;;;;;;;;;;;;;;22.87;53.30;96183.97;1050604;28;2063;-58
2021/09/28 02:02:29;;;;;;;;;;;;;;;22.87;53.57;96176.03;1052368;28;1169;-58
2021/09/28 02:03:00;;;;;;;;;;;;;;;22.87;53.43;96183.97;1050417;28;1345;-57
2021/09/28 02:03:30;;;;;;;;;;;;;;;22.87;53.67;96175.25;1049217;28;1138;-56
2021/09/28 02:04:01;;;;;;;;;;;;;;;22.86;53.75;96179.75;1050346;28;1938;-58
2021/09/28 02:04:31;;;;;;;;;;;;;;;22.88;53.57;96176.81;1052121;28;814;-56
2021/09/28 02:05:01;;;;;;;;;;;;;;;22.87;53.54;96177.88;1050562;28;1063;-55
2021/09/28 02:05:32;;;;;;;;;;;;;;;22.87;53.79;96175.25;1051857;28;1264;-55
2021/09/28 02:06:02;;;;;;;;;;;;;;;22.87;53.71;96172.59;1051939;28;1088;-55
2021/09/28 02:06:43;;;;;;;;;;;;;;;22.87;53.63;96172.59;1049228;28;1924;-59
2021/09/28 02:07:14;;;;;;;;;;;;;;;22.87;53.56;96172.59;1048973;28;1364;-58
2021/09/28 02:07:44;;;;;;;;;;;;;;;22.87;53.66;96172.59;1049338;28;1188;-58
2021/09/28 02:08:15;;;;;;;;;;;;;;;22.86;53.81;96174.44;1051088;28;1064;-57
2021/09/28 02:08:45;;;;;;;;;;;;;;;22.86;53.32;96171.81;1048685;28;1887;-58
2021/09/28 02:09:15;;;;;;;;;;;;;;;22.86;53.86;96181.59;1052352;28;1527;-54
2021/09/28 02:09:46;;;;;;;;;;;;;;;22.85;53.56;96167.59;1052100;28;1506;-59
2021/09/28 02:10:16;;;;;;;;;;;;;;;22.85;53.70;96172.91;1051259;28;1087;-58
2021/09/28 02:10:46;;;;;;;;;;;;;;;22.86;53.45;96168.38;1051179;28;1161;-59
2021/09/28 02:11:17;;;;;;;;;;;;;;;22.86;53.33;96160.44;1052947;28;1106;-57
2021/09/28 02:11:47;;;;;;;;;;;;;;;22.86;53.38;96166.53;1049551;28;1052;-58
2021/09/28 02:12:17;;;;;;;;;;;;;;;22.86;53.70;96171.00;1050542;28;1181;-58
2021/09/28 02:12:48;;;;;;;;;;;;;;;22.86;53.33;96165.72;1049225;28;1235;-55
2021/09/28 02:13:18;;;;;;;;;;;;;;;22.86;53.38;96165.72;1051625;28;1154;-55
2021/09/28 02:13:50;;;;;;;;;;;;;;;22.86;53.61;96171.81;1051715;28;2022;-59
2021/09/28 02:14:26;;;;;;;;;;;;;;;22.86;53.76;96173.66;1052176;28;1000;-58
2021/09/28 02:14:56;;;;;;;;;;;;;;;22.86;53.39;96171.00;1051668;28;1161;-57
2021/09/28 02:15:26;;;;;;;;;;;;;;;22.85;53.37;96166.81;1052899;28;1134;-58
2021/09/28 02:15:57;;;;;;;;;;;;;;;22.87;53.58;96167.31;1051379;28;1208;-56
2021/09/28 02:16:27;;;;;;;;;;;;;;;22.85;53.51;96164.97;1050255;28;1181;-57
2021/09/28 02:16:58;;;;;;;;;;;;;;;22.85;53.60;96167.59;1050739;28;1910;-59
2021/09/28 02:17:28;;;;;;;;;;;;;;;22.86;53.63;96171.00;1049860;28;1189;-56
2021/09/28 02:17:59;;;;;;;;;;;;;;;22.85;53.56;96167.59;1048512;28;1071;-56
2021/09/28 02:18:29;;;;;;;;;;;;;;;22.86;53.71;96171.81;1052864;28;1107;-57
2021/09/28 02:18:59;;;;;;;;;;;;;;;22.86;53.68;96171.81;1049420;28;1750;-57
2021/09/28 02:19:30;;;;;;;;;;;;;;;22.87;53.36;96167.31;1048921;28;2022;-57
2021/09/28 02:20:00;;;;;;;;;;;;;;;22.86;53.35;96168.38;1051282;28;1067;-57
2021/09/28 02:20:31;;;;;;;;;;;;;;;22.86;53.38;96169.16;1052270;28;1408;-58
2021/09/28 02:21:01;;;;;;;;;;;;;;;22.86;53.51;96171.00;1049358;28;1140;-58
2021/09/28 02:21:31;;;;;;;;;;;;;;;22.86;53.53;96166.53;1048862;28;1216;-55
2021/09/28 02:22:02;;;;;;;;;;;;;;;22.87;53.67;96167.31;1051651;28;1025;-57
2021/09/28 02:22:32;;;;;;;;;;;;;;;22.86;53.37;96163.09;1051323;28;1189;-57
2021/09/28 02:23:02;;;;;;;;;;;;;;;22.87;53.39;96169.97;1048597;28;1406;-56
2021/09/28 02:23:33;;;;;;;;;;;;;;;22.85;53.29;96164.97;1050957;28;2272;-58
2021/09/28 02:24:03;;;;;;;;;;;;;;;22.86;53.39;96166.53;1049822;28;2024;-57
2021/09/28 02:24:34;;;;;;;;;;;;;;;22.86;53.26;96171.00;1050044;28;1188;-56
2021/09/28 02:25:05;;;;;;;;;;;;;;;22.86;53.61;96171.00;1051379;28;1185;-57
2021/09/28 02:25:35;;;;;;;;;;;;;;;22.86;53.71;96174.44;1051629;28;1524;-57
2021/09/28 02:26:06;;;;;;;;;;;;;;;22.87;53.29;96169.97;1051794;28;1069;-58
2021/09/28 02:26:37;;;;;;;;;;;;;;;22.86;53.56;96171.00;1049800;28;1666;-54
2021/09/28 02:27:07;;;;;;;;;;;;;;;22.86;53.54;96171.00;1052505;28;1017;-55
2021/09/28 02:27:37;;;;;;;;;;;;;;;22.87;53.39;96172.59;1048154;28;1212;-57
2021/09/28 02:28:08;;;;;;;;;;;;;;;22.87;53.50;96172.59;1052584;28;931;-56
2021/09/28 02:28:38;;;;;;;;;;;;;;;22.86;53.46;96168.38;1053215;28;749;-57
2021/09/28 02:29:09;;;;;;;;;;;;;;;22.87;53.44;96169.97;1050847;28;1931;-58
2021/09/28 02:29:39;;;;;;;;;;;;;;;22.87;53.53;96168.13;1044165;28;1265;-57
2021/09/28 02:30:09;;;;;;;;;;;;;;;22.86;53.18;96171.00;1048262;28;1290;-55
2021/09/28 02:30:40;;;;;;;;;;;;;;;22.86;53.24;96168.38;1046874;28;1441;-56
2021/09/28 02:31:10;;;;;;;;;;;;;;;22.85;53.65;96172.91;1050294;28;2011;-58
2021/09/28 02:31:41;;;;;;;;;;;;;;;22.86;53.39;96173.66;1051935;28;1475;-55
2021/09/28 02:32:11;;;;;;;;;;;;;;;22.85;53.61;96174.75;1049721;28;1809;-57
2021/09/28 02:32:41;;;;;;;;;;;;;;;22.85;53.37;96172.09;1048703;28;1297;-56
2021/09/28 02:33:12;;;;;;;;;;;;;;;22.86;53.54;96171.00;1051492;28;2026;-58
2021/09/28 02:33:42;;;;;;;;;;;;;;;22.86;53.29;96173.66;1044389;28;1033;-55
2021/09/28 02:34:12;;;;;;;;;;;;;;;22.85;53.28;96170.25;1045303;28;2245;-56
2021/09/28 02:34:43;;;;;;;;;;;;;;;22.86;53.40;96171.00;1048317;28;1052;-55
2021/09/28 02:35:13;;;;;;;;;;;;;;;22.86;53.17;96168.38;1052704;28;1083;-56
2021/09/28 02:35:43;;;;;;;;;;;;;;;22.86;53.37;96171.00;1051881;28;1121;-59
2021/09/28 02:36:14;;;;;;;;;;;;;;;22.85;53.45;96159.69;1050774;28;1602;-55
2021/09/28 02:36:44;;;;;;;;;;;;;;;22.86;53.59;96166.53;1048832;28;2356;-58
2021/09/28 02:37:14;;;;;;;;;;;;;;;22.86;53.29;96165.72;1052185;28;1256;-56
2021/09/28 02:37:45;;;;;;;;;;;;;;;22.86;53.43;96163.09;1049210;28;1192;-57
2021/09/28 02:38:15;;;;;;;;;;;;;;;22.86;53.15;96163.09;1052636;28;1130;-55
2021/09/28 02:38:45;;;;;;;;;;;;;;;22.85;53.33;96166.81;1053252;28;1102;-56
2021/09/28 02:39:16;;;;;;;;;;;;;;;22.86;53.44;96171.81;1050488;28;2027;-59
2021/09/28 02:39:46;;;;;;;;;;;;;;;22.86;53.44;96165.72;1048237;28;1451;-58
2021/09/28 02:40:16;;;;;;;;;;;;;;;22.86;53.47;96165.72;1050713;28;1027;-58
2021/09/28 02:40:47;;;;;;;;;;;;;;;22.85;53.46;96164.97;1051940;28;1049;-58
2021/09/28 02:41:17;;;;;;;;;;;;;;;22.86;53.66;96169.16;1051812;28;1216;-57
2021/09/28 02:41:47;;;;;;;;;;;;;;;22.85;53.23;96164.97;1052790;28;1094;-57
2021/09/28 02:42:18;;;;;;;;;;;;;;;22.86;53.38;96169.16;1053347;28;1157;-58
2021/09/28 02:42:49;;;;;;;;;;;;;;;22.86;53.31;96165.72;1050137;28;1121;-58
2021/09/28 02:43:19;;;;;;;;;;;;;;;22.86;53.57;96165.72;1052984;28;1126;-56
2021/09/28 02:43:49;;;;;;;;;;;;;;;22.87;53.53;96167.31;1053334;28;1103;-57
2021/09/28 02:44:20;;;;;;;;;;;;;;;22.86;53.45;96171.81;1048955;28;1763;-60
2021/09/28 02:44:52;;;;;;;;;;;;;;;22.86;53.17;96163.88;1050303;28;1065;-59
2021/09/28 02:45:22;;;;;;;;;;;;;;;22.86;53.50;96171.81;1051988;28;1201;-57
2021/09/28 02:45:52;;;;;;;;;;;;;;;22.86;53.34;96169.16;1049662;28;1149;-58
2021/09/28 02:46:23;;;;;;;;;;;;;;;22.86;53.56;96173.66;1050896;28;1183;-57
2021/09/28 02:46:53;;;;;;;;;;;;;;;22.86;53.27;96171.81;1050546;28;1154;-54